Khanabad, Karshi Airport (UTSK)

NameKarshi Airport
CityKhanabad
CountryUzbekistan
ICAOUTSK
IATAKSQ
Altitude375 m
CoordinatesGoogle Map
Live Air TrafficLiveATC.net
METARUTSK 141300Z 25006KT 6000 NSC 12/01 Q1023 R16/CLRD70
2018-12-14 13:00:00 Wind: West-Southwest (250°) 3.09 m/s - Visibility: 6000 m - Temperature: 12 °C - Dew point: 1 °C - Humidity: 47.2% - Pressure: 1023 hPa
Statistics

The table below shows the detailed information of all flights to/from Khanabad, Karshi Airport (UTSK).